Gold Bar, WA

10:21 PM PDT on August 19, 2014 (GMT -0700)
Skykomish Valley at MIR | Change Station
CLOSE
Current Station
Personal Weather Station
Location: Index, WA
Elevation: 686 ft
Nearby Weather Stations

Elev 686 ft 47.80 °N, 121.55 °W | Updated 7 minutes ago

Overcast
Overcast
64.9 °F
Feels Like 64.9 °F
N
0.0
Wind Variable Wind from SE
Gusts 0.0 mph

Today
High -- | Low -- °F
--% Chance of Precip.
Yesterday
High -- | Low -- °F
Precip. -- in
6:07 AM 8:11 PM
Waning Crescent, 24% visible
Pressure 29.83 in
Visibility 10.0 miles
Clouds Mostly Cloudy 4400 ft
Mostly Cloudy 6000 ft
Overcast 7500 ft
Dew Point 61 °F
Humidity 87%
Rainfall 0.00 in
Snow Depth 0 in
UV 0 out of 12
Pollen 3.50 out of 12
PM2.5 Good
Flu Activity Not available.
METAR KPAE 200453Z AUTO 01009G15KT 10SM BKN044 BKN060 OVC075 16/11 A2983 RMK AO2 SLP099 T01610111

More Conditions Fewer Conditions

Pressure 29.83 in
Visibility 10.0 miles
Clouds Mostly Cloudy 4400 ft
Mostly Cloudy 6000 ft
Overcast 7500 ft
Dew Point 61 °F
Humidity 87%
Rainfall 0.00 in
Snow Depth 0 in
UV 0 out of 12
Pollen 3.50 out of 12
PM2.5 Good
Flu Activity Not available.
METAR KPAE 200453Z AUTO 01009G15KT 10SM BKN044 BKN060 OVC075 16/11 A2983 RMK AO2 SLP099 T01610111

More Conditions Fewer Conditions

10-Day Weather Forecast

Almanac

Astronomy

Aug. 19, 2014 Rise Set
Actual Time 6:07 AM PDT 8:11 PM PDT
Civil Twilight 5:33 AM PDT 8:44 PM PDT
Nautical Twilight 4:51 AM PDT 9:26 PM PDT
Astronomical Twilight 4:05 AM PDT 10:12 PM PDT
Moon 12:55 AM PDT (8/19) 4:20 PM PDT (8/19)
Length of Visible Light 15h 11m
Length of Day
14h 04m
Tomorrow will be 3m 11s shorter.
Waning Crescent, 24% of the Moon is Illuminated
Aug 20
Waning Crescent
Aug 25
New
Sep 2
First Quarter
Sep 8
Full
Sep 15
Last Quarter

Yesterday's Extremes

State Highs State Lows

Community

WunderPhotos

Upload Photos

1,745,592 photos uploaded!

Nearby

Air Quality

  Air Quality AQ Index Pollutant
Yesterday Good
PM2.5
Yesterday Good
OZONE
Current Good
PM2.5
Tuesday Good
OZONE
Tuesday Good
PM2.5
Wednesday Good
OZONE
Wednesday Good
PM2.5
Thursday Good
OZONE
Thursday Good
PM2.5
Friday Good
OZONE
Friday Good
PM2.5
Saturday Good
OZONE
Saturday Good
PM2.5

Snow Depth

Station Depth Elevation
Alpine Meadows 0 in 3500 ft
Stevens Pass 0 in 4070 ft
Meadows Pass 0 in 3500 ft
Stampede Pass 2 in 3860 ft
Sasse Ridge 0 in 4200 ft

Earthquake Activity

City Distance Mag. Time & Date
No recent earthquake activity has been reported nearby.
Minimum magnitude displayed is 2.5.

Coastal Water Temperatures

Place Temperature
No Stations Reporting

Nearby Weather Stations